Aviation Digital Data Service (ADDS)

Output produced by METARs form (0753 UTC 03 August 2021)
found at http://www.aviationweather.gov/metar/data/
 
KJST 030654Z AUTO 00000KT 10SM FEW070 15/08 A3015 RMK AO2 SLP202 T01500078
KJST 030554Z AUTO 00000KT 10SM FEW060 16/08 A3016 RMK AO2 SLP204 T01560078 10194 20144 56003
KJST 030454Z AUTO 03003KT 10SM CLR 16/08 A3017 RMK AO2 SLP209 T01560083 402220133
KJST 030354Z AUTO 36005KT 10SM CLR 17/09 A3016 RMK AO2 SLP204 T01720089
KJST 030254Z AUTO 24005KT 10SM CLR 16/08 A3017 RMK AO2 SLP211 T01610083 53012
KJST 030154Z AUTO 32004KT 10SM CLR 18/08 A3015 RMK AO2 SLP202 T01830078
KJST 030054Z AUTO 32005KT 10SM CLR 18/08 A3013 RMK AO2 SLP198 T01780083
KJST 022354Z AUTO 31006KT 10SM FEW060 19/09 A3013 RMK AO2 SLP197 T01940089 10222 20194 53004
KJST 022254Z AUTO 34006KT 10SM OVC065 21/08 A3012 RMK AO2 SLP192 T02110083
KJST 022154Z AUTO 34007KT 10SM SCT070 22/09 A3012 RMK AO2 SLP190 T02170089
KJST 022054Z AUTO 31008KT 10SM CLR 22/08 A3012 RMK AO2 SLP190 T02170083 58002
KJST 021954Z AUTO 30004KT 10SM FEW050 22/09 A3012 RMK AO2 SLP190 T02170089
KJST 021854Z AUTO 34010G14KT 10SM BKN043 BKN050 21/09 A3013 RMK AO2 SLP194 T02060094
KJST 021754Z AUTO 36007KT 10SM FEW039 21/10 A3013 RMK AO2 SLP193 T02060100 10206 20139 58005
KJST 021654Z AUTO 30008KT 10SM FEW028 SCT033 BKN041 18/10 A3013 RMK AO2 SLP198 T01780100
KJST 021554Z AUTO 34007KT 10SM FEW020 SCT027 BKN032 18/11 A3014 RMK AO2 SLP200 T01780111
KJST 021454Z AUTO VRB06KT 10SM BKN016 OVC023 16/11 A3014 RMK AO2 SLP204 T01560111 51019
KJST 021407Z AUTO 01007KT 10SM FEW007 SCT013 OVC019 16/11 A3013 RMK AO2 T01610111
KJST 021359Z AUTO 35010KT 10SM SCT011 BKN016 OVC021 16/11 A3013 RMK AO2 T01610111
KJST 021354Z AUTO 35006KT 10SM BKN009 OVC019 16/12 A3013 RMK AO2 CIG 007V014 SLP198 T01560117
KJST 021335Z AUTO 33006KT 10SM FEW008 BKN014 14/11 A3012 RMK AO2 T01440111
KJST 021333Z AUTO 32004KT 10SM SCT010 BKN016 14/11 A3012 RMK AO2 T01440111
KJST 021313Z AUTO 32006KT 10SM SCT008 BKN014 14/11 A3011 RMK AO2 T01440111
KJST 021254Z AUTO 33006KT 10SM OVC008 14/11 A3011 RMK AO2 CIG 006V013 SLP194 T01390111
KJST 021154Z AUTO 34008KT 6SM BR BKN006 OVC012 14/12 A3008 RMK AO2 CIG 004V008 SLP183 70014 T01390117 10150 20133 52018
KJST 021117Z AUTO 34005KT 5SM BR BKN005 OVC012 14/12 A3008 RMK AO2 CIG 004V008 T01390122
KJST 021054Z AUTO 31009KT 6SM BR SCT008 OVC014 14/12 A3007 RMK AO2 SLP177 T01390117
KJST 021016Z AUTO 32007KT 6SM BR OVC011 13/12 A3005 RMK AO2 T01330117
KJST 021001Z AUTO 32009KT 6SM BR BKN009 13/12 A3005 RMK AO2 CIG 006V014 T01330117
KJST 020954Z AUTO 32010KT 6SM BR BKN010 13/12 A3004 RMK AO2 CIG 006V013 SLP171 T01330117
KJST 020924Z AUTO 31009KT 5SM BR FEW003 SCT010 13/12 A3003 RMK AO2 T01330117
KJST 020915Z AUTO 31010KT 6SM BR SCT005 BKN012 14/12 A3003 RMK AO2 T01390117
KJST 020854Z AUTO 30009KT 4SM BR BKN005 OVC010 14/13 A3003 RMK AO2 CIG 002V006 SLP162 T01440128 51007
KJST 020850Z AUTO 31011KT 4SM BR BKN005 OVC010 14/13 A3002 RMK AO2 CIG 002V006
KJST 020838Z AUTO 30012KT 3SM BR OVC003 14/13 A3002 RMK AO2 CIG 002V008 T01440128
KJST 020816Z AUTO 31012KT 2 1/2SM BR OVC004 14/13 A3002 RMK AO2 CIG 002V006 T01440128
KJST 020754Z AUTO 29010KT 3SM BR BKN004 OVC008 14/13 A3001 RMK AO2 CIG 004V007 SLP151 T01440128
KJST 020713Z AUTO 30010KT 4SM BR BKN007 BKN013 14/13 A3000 RMK AO2 CIG 005V009 T01440128
KJST 020654Z AUTO 30009KT 4SM BR SCT009 BKN013 BKN025 15/13 A3000 RMK AO2 SLP148 T01500128
KJST 020646Z AUTO 30010KT 4SM BR FEW009 SCT013 BKN028 14/13 A3000 RMK AO2 T01440128
KJST 020624Z AUTO 29009KT 5SM BR SCT010 BKN027 15/13 A3001 RMK AO2 T01500128
KJST 020554Z AUTO 28007KT 5SM BR FEW011 14/13 A3000 RMK AO2 SLP149 T01440128 10156 20139 50002
KJST 020454Z AUTO 28006KT 6SM BR FEW037 14/13 A3001 RMK AO2 SLP152 T01440128 402440139
KJST 020433Z AUTO 24004KT 7SM SCT013 15/13 A3001 RMK AO2 T01500128
KJST 020407Z AUTO 26004KT 6SM BR BKN014 BKN021 BKN085 16/13 A3001 RMK AO2 T01560133
KJST 020354Z AUTO 27005KT 7SM SCT014 BKN085 15/13 A3001 RMK AO2 SLP152 T01500128
KJST 020329Z AUTO 26005KT 7SM BKN011 OVC019 16/13 A3000 RMK AO2 T01560133
KJST 020318Z AUTO 26006KT 6SM BR BKN009 15/13 A3000 RMK AO2 CIG 007V013 T01500128
KJST 020310Z AUTO 25004KT 7SM SCT009 BKN014 15/13 A3000 RMK AO2 T01500128
KJST 020307Z AUTO 22006KT 7SM SCT009 SCT014 SCT020 15/13 A3000 RMK AO2 T01500128
KJST 020254Z AUTO 27006KT 7SM CLR 14/12 A2999 RMK AO2 SLP149 T01440122 51017
KJST 020154Z AUTO 27005KT 7SM CLR 14/12 A2999 RMK AO2 SLP147 T01440122
KJST 020054Z AUTO 24004KT 7SM SCT090 14/12 A2996 RMK AO2 SLP138 T01440122
KJST 012354Z AUTO 27005KT 7SM FEW110 16/13 A2994 RMK AO2 SLP132 60014 T01560128 10244 20144 51008
KJST 012254Z AUTO 00000KT 8SM FEW060 16/13 A2993 RMK AO2 RAE05 SLP130 P0001 T01610128
KJST 012154Z AUTO 36006KT 4SM -RA BR FEW049 BKN075 OVC090 15/13 A2993 RMK AO2 PK WND 31029/2104 SLP130 P0013 T01500128
KJST 012140Z AUTO 34008KT 3SM RA BR SCT046 BKN065 OVC080 15/13 A2994 RMK AO2 PK WND 31029/2104 P0012 T01500128
KJST 012119Z AUTO 31018G25KT 1 3/4SM +RA SCT040 BKN048 OVC065 16/12 A2994 RMK AO2 PK WND 31029/2104 P0005 T01560122
KJST 012054Z AUTO 34012G22KT 9SM -RA SCT038 BKN046 OVC085 18/11 A2992 RMK AO2 PK WND 34026/2036 WSHFT 2029 LTG DSNT W RAB41 SLP124 P0000 60000 T01780111 53007
KJST 012049Z AUTO 34016G26KT 7SM -RA FEW033 BKN042 OVC085 17/12 A2991 RMK AO2 PK WND 34026/2036 WSHFT 2029 LTG DSNT W RAB41 P0000
KJST 011954Z AUTO 29007KT 10SM FEW042 SCT049 BKN075 23/13 A2988 RMK AO2 LTG DSNT NW SLP108 T02330128
KJST 030524Z 0306/0406 VRB05KT P6SM SKC 
     FM031600 14008KT P6SM OVC100 
     FM040000 14004KT P6SM OVC060